createdAt,value
2019-03-05T00:00:26.177Z,1.80
2019-03-05T00:02:55.699Z,1.87
2019-03-05T00:05:26.235Z,1.57
2019-03-05T00:07:56.265Z,2.20
2019-03-05T00:10:25.790Z,2.30
2019-03-05T00:12:56.474Z,2.03
2019-03-05T00:15:26.963Z,1.60
2019-03-05T00:17:56.413Z,2.23
2019-03-05T00:20:26.198Z,2.20
2019-03-05T00:22:55.299Z,1.90
2019-03-05T00:25:24.721Z,2.70
2019-03-05T00:28:00.697Z,2.43
2019-03-05T00:30:42.119Z,2.20
2019-03-05T00:33:23.393Z,2.47
2019-03-05T00:36:09.455Z,2.33
2019-03-05T00:38:50.170Z,2.27
2019-03-05T00:41:35.663Z,2.03
2019-03-05T00:44:27.754Z,2.20
2019-03-05T00:47:12.694Z,2.57
2019-03-05T00:49:55.235Z,2.13
2019-03-05T00:52:36.756Z,2.10
2019-03-05T00:55:26.941Z,2.37
2019-03-05T00:58:04.923Z,2.10
2019-03-05T01:00:43.506Z,2.20
2019-03-05T01:03:21.710Z,1.83
2019-03-05T01:06:01.936Z,2.03
2019-03-05T01:08:32.175Z,1.67
2019-03-05T01:11:01.771Z,2.17
2019-03-05T01:13:31.579Z,1.50
2019-03-05T01:16:02.678Z,1.90
2019-03-05T01:18:33.065Z,2.30
2019-03-05T01:21:02.822Z,1.97
2019-03-05T01:23:32.361Z,1.70
2019-03-05T01:26:02.069Z,2.10
2019-03-05T01:28:31.797Z,1.93
2019-03-05T01:31:07.762Z,2.27
2019-03-05T01:33:42.483Z,1.80
2019-03-05T01:36:15.897Z,2.23
2019-03-05T01:38:55.169Z,1.47
2019-03-05T01:41:25.105Z,2.00
2019-03-05T01:43:55.038Z,1.90
2019-03-05T01:46:24.217Z,1.70
2019-03-05T01:48:54.143Z,1.60
2019-03-05T01:51:23.939Z,1.60
2019-03-05T01:53:53.555Z,1.53
2019-03-05T01:56:24.285Z,1.60
2019-03-05T01:58:54.089Z,1.37
2019-03-05T02:01:23.309Z,1.40
2019-03-05T02:03:54.107Z,1.50
2019-03-05T02:06:23.558Z,1.63
2019-03-05T02:08:53.291Z,1.80
2019-03-05T02:11:23.378Z,1.53
2019-03-05T02:13:53.309Z,1.37
2019-03-05T02:16:22.889Z,1.20
2019-03-05T02:18:53.333Z,1.60
2019-03-05T02:21:22.981Z,1.30
2019-03-05T02:25:00.360Z,1.33
2019-03-05T02:28:38.399Z,1.10
2019-03-05T02:32:25.339Z,1.10
2019-03-05T02:35:08.355Z,1.53
2019-03-05T02:37:54.214Z,1.50
2019-03-05T02:41:34.038Z,1.40
2019-03-05T02:44:13.871Z,1.20
2019-03-05T02:49:14.580Z,0.90
2019-03-05T02:53:56.905Z,0.90
2019-03-05T02:56:43.117Z,1.40
2019-03-05T02:59:11.580Z,1.10
2019-03-05T03:02:00.451Z,1.00
2019-03-05T03:04:32.856Z,1.30
2019-03-05T03:07:02.496Z,1.10
2019-03-05T03:10:35.915Z,0.90
2019-03-05T03:13:05.562Z,1.10
2019-03-05T03:15:35.254Z,1.20
2019-03-05T03:18:04.959Z,1.37
2019-03-05T03:20:34.733Z,0.70
2019-03-05T03:23:05.131Z,1.20
2019-03-05T03:25:34.308Z,1.00
2019-03-05T03:28:05.284Z,1.10
2019-03-05T03:30:35.367Z,1.03
2019-03-05T03:33:05.351Z,0.80
2019-03-05T03:35:35.281Z,1.20
2019-03-05T03:38:05.515Z,1.17
2019-03-05T03:40:43.128Z,1.17
2019-03-05T03:43:12.991Z,1.03
2019-03-05T03:45:42.742Z,1.00
2019-03-05T03:48:12.422Z,1.20
2019-03-05T03:50:42.451Z,0.80
2019-03-05T03:53:12.200Z,0.87
2019-03-05T03:55:41.923Z,0.70
2019-03-05T03:58:12.028Z,1.20
2019-03-05T04:00:41.838Z,0.90
2019-03-05T04:03:11.727Z,1.17
2019-03-05T04:05:41.847Z,0.80
2019-03-05T04:08:11.066Z,1.20
2019-03-05T04:10:43.010Z,1.27
2019-03-05T04:13:12.871Z,1.07
2019-03-05T04:15:43.116Z,0.70
2019-03-05T04:18:12.683Z,0.90
2019-03-05T04:20:46.819Z,0.80
2019-03-05T04:23:16.969Z,0.70
2019-03-05T04:25:46.834Z,1.03
2019-03-05T04:28:16.562Z,0.97
2019-03-05T04:30:46.651Z,0.60
2019-03-05T04:33:17.509Z,1.77
2019-03-05T04:35:48.968Z,0.70
2019-03-05T04:38:18.910Z,0.90
2019-03-05T04:40:49.128Z,0.83
2019-03-05T04:43:18.845Z,0.83
2019-03-05T04:45:55.314Z,0.70
2019-03-05T04:48:26.453Z,1.00
2019-03-05T04:51:07.211Z,0.80
2019-03-05T04:53:37.347Z,1.00
2019-03-05T04:56:07.130Z,0.97
2019-03-05T04:58:36.796Z,0.70
2019-03-05T05:01:07.015Z,1.20
2019-03-05T05:03:36.693Z,1.00
2019-03-05T05:06:07.335Z,1.30
2019-03-05T05:08:37.266Z,1.10
2019-03-05T05:11:08.326Z,1.00
2019-03-05T05:13:50.796Z,0.77
2019-03-05T05:16:20.404Z,0.83
2019-03-05T05:18:49.655Z,0.70
2019-03-05T05:21:19.690Z,0.80
2019-03-05T05:23:48.919Z,0.80
2019-03-05T05:26:18.797Z,0.87
2019-03-05T05:28:48.630Z,0.77
2019-03-05T05:31:18.394Z,0.50
2019-03-05T05:33:48.340Z,0.80
2019-03-05T05:36:18.357Z,0.97
2019-03-05T05:38:48.143Z,0.50
2019-03-05T05:41:17.363Z,0.70
2019-03-05T05:43:47.626Z,0.80
2019-03-05T05:46:16.826Z,0.50
2019-03-05T05:48:46.613Z,0.70
2019-03-05T05:51:16.817Z,0.70
2019-03-05T05:53:45.974Z,0.70
2019-03-05T05:56:15.737Z,0.60
2019-03-05T05:58:45.355Z,0.80
2019-03-05T06:01:14.530Z,0.80
2019-03-05T06:03:43.608Z,0.83
2019-03-05T06:06:13.111Z,0.60
2019-03-05T06:08:42.238Z,0.90
2019-03-05T06:11:12.164Z,0.80
2019-03-05T06:13:42.326Z,0.97
2019-03-05T06:16:11.500Z,1.27
2019-03-05T06:18:40.659Z,0.93
2019-03-05T06:21:10.154Z,1.00
2019-03-05T06:23:39.343Z,1.10
2019-03-05T06:26:08.884Z,0.80
2019-03-05T06:28:38.690Z,1.03
2019-03-05T06:31:08.595Z,0.77
2019-03-05T06:33:39.300Z,1.50
2019-03-05T06:36:09.530Z,1.60
2019-03-05T06:38:38.639Z,1.00
2019-03-05T06:41:08.265Z,1.30
2019-03-05T06:43:39.267Z,1.33
2019-03-05T06:46:08.378Z,0.90
2019-03-05T06:48:38.179Z,1.50
2019-03-05T06:51:07.702Z,1.40
2019-03-05T06:53:37.392Z,0.90
2019-03-05T06:56:07.126Z,1.13
2019-03-05T06:58:36.590Z,1.00
2019-03-05T07:01:05.728Z,1.17
2019-03-05T07:03:35.235Z,1.40
2019-03-05T07:06:15.136Z,1.37
2019-03-05T07:08:50.935Z,1.07
2019-03-05T07:13:41.134Z,1.50
2019-03-05T07:16:18.494Z,1.40
2019-03-05T07:18:55.694Z,1.20
2019-03-05T07:21:48.878Z,1.37
2019-03-05T07:24:27.458Z,1.70
2019-03-05T07:26:56.947Z,1.73
2019-03-05T07:29:26.095Z,1.50
2019-03-05T07:31:55.754Z,1.80
2019-03-05T07:34:28.138Z,1.30
2019-03-05T07:36:57.251Z,1.20
2019-03-05T07:39:26.813Z,1.50
2019-03-05T07:41:56.458Z,1.50
2019-03-05T07:44:25.568Z,1.33
2019-03-05T07:46:54.752Z,1.20
2019-03-05T07:49:24.706Z,1.20
2019-03-05T07:51:53.850Z,1.03
2019-03-05T07:54:23.717Z,1.20
2019-03-05T07:56:53.176Z,1.47
2019-03-05T07:59:22.334Z,1.07
2019-03-05T08:01:51.462Z,1.70
2019-03-05T08:04:21.482Z,1.40
2019-03-05T08:06:50.595Z,1.13
2019-03-05T08:09:31.580Z,1.33
2019-03-05T08:12:10.748Z,1.00
2019-03-05T08:14:51.102Z,1.00
2019-03-05T08:17:20.831Z,1.30
2019-03-05T08:19:50.456Z,1.27
2019-03-05T08:22:20.476Z,1.00
2019-03-05T08:24:50.582Z,1.07
2019-03-05T08:27:19.722Z,1.50
2019-03-05T08:29:49.588Z,0.90
2019-03-05T08:32:19.156Z,1.13
2019-03-05T08:34:48.322Z,1.17
2019-03-05T08:37:17.562Z,1.17
2019-03-05T08:39:47.805Z,1.20
2019-03-05T08:42:17.234Z,1.10
2019-03-05T08:44:50.702Z,1.00
2019-03-05T08:47:16.714Z,1.10
2019-03-05T08:49:45.847Z,0.70
2019-03-05T08:52:15.029Z,2.00
2019-03-05T08:54:45.502Z,0.97
2019-03-05T08:57:13.867Z,0.83
2019-03-05T08:59:43.116Z,0.87
2019-03-05T09:02:12.579Z,1.13
2019-03-05T09:04:42.010Z,0.87
2019-03-05T09:07:11.191Z,1.13
2019-03-05T09:09:41.234Z,0.90
2019-03-05T09:12:10.495Z,0.80
2019-03-05T09:14:39.790Z,0.93
2019-03-05T09:17:09.451Z,0.67
2019-03-05T09:19:38.642Z,0.70
2019-03-05T09:22:08.508Z,0.87
2019-03-05T09:24:38.041Z,0.87
2019-03-05T09:27:07.203Z,1.17
2019-03-05T09:29:36.968Z,1.00
2019-03-05T09:32:06.472Z,1.00
2019-03-05T09:34:35.573Z,0.90
2019-03-05T09:37:04.899Z,0.80
2019-03-05T09:39:35.706Z,0.87
2019-03-05T09:42:05.591Z,1.13
2019-03-05T09:44:35.328Z,0.87
2019-03-05T09:47:04.823Z,0.73
2019-03-05T09:49:34.510Z,1.63
2019-03-05T09:52:03.766Z,0.90
2019-03-05T09:54:34.776Z,1.20
2019-03-05T09:57:04.223Z,1.20
2019-03-05T09:59:33.453Z,0.80
2019-03-05T10:02:03.495Z,1.00
2019-03-05T10:04:33.378Z,0.80
2019-03-05T10:07:02.706Z,0.97
2019-03-05T10:09:32.179Z,0.77
2019-03-05T10:12:02.034Z,0.83
2019-03-05T10:14:31.115Z,1.03
2019-03-05T10:17:00.878Z,1.20
2019-03-05T10:19:30.004Z,1.00
2019-03-05T10:21:59.290Z,1.00
2019-03-05T10:24:29.228Z,1.00
2019-03-05T10:26:58.458Z,1.10
2019-03-05T10:29:27.655Z,0.73
2019-03-05T10:31:57.750Z,0.60
2019-03-05T10:34:26.975Z,0.90
2019-03-05T10:36:56.159Z,0.97
2019-03-05T10:39:30.854Z,0.93
2019-03-05T10:41:56.498Z,0.83
2019-03-05T10:44:26.241Z,0.77
2019-03-05T10:46:56.343Z,0.70
2019-03-05T10:49:25.999Z,0.57
2019-03-05T10:51:55.750Z,0.80
2019-03-05T10:54:26.106Z,0.70
2019-03-05T10:56:55.974Z,0.80
2019-03-05T10:59:25.114Z,0.60
2019-03-05T11:01:54.826Z,0.60
2019-03-05T11:04:24.566Z,0.70
2019-03-05T11:06:53.954Z,0.60
2019-03-05T11:09:23.617Z,0.90
2019-03-05T11:11:52.767Z,0.80
2019-03-05T11:14:22.618Z,0.53
2019-03-05T11:16:52.255Z,0.60
2019-03-05T11:19:21.394Z,0.60
2019-03-05T11:21:50.769Z,0.90
2019-03-05T11:24:20.403Z,0.80
2019-03-05T11:26:49.841Z,0.80
2019-03-05T11:29:18.986Z,0.80
2019-03-05T11:31:48.386Z,0.90
2019-03-05T11:34:18.038Z,0.80
2019-03-05T11:36:47.254Z,1.10
2019-03-05T11:39:16.863Z,0.70
2019-03-05T11:41:46.010Z,0.93
2019-03-05T11:44:15.175Z,1.00
2019-03-05T11:46:44.717Z,0.70
2019-03-05T11:49:14.000Z,0.70
2019-03-05T11:51:44.001Z,0.70
2019-03-05T11:54:13.486Z,0.67
2019-03-05T11:56:43.337Z,0.83
2019-03-05T11:59:12.673Z,0.83
2019-03-05T12:01:45.363Z,0.50
2019-03-05T12:04:14.450Z,0.80
2019-03-05T12:06:43.814Z,1.00
2019-03-05T12:09:13.746Z,0.80
2019-03-05T12:11:43.862Z,0.50
2019-03-05T12:14:13.470Z,0.60
2019-03-05T12:16:43.392Z,0.70
2019-03-05T12:19:12.586Z,0.50
2019-03-05T12:21:41.769Z,0.47
2019-03-05T12:24:11.382Z,0.50
2019-03-05T12:26:41.235Z,0.70
2019-03-05T12:29:10.523Z,0.70
2019-03-05T12:31:40.107Z,0.80
2019-03-05T12:34:09.281Z,0.63
2019-03-05T12:36:39.117Z,0.70
2019-03-05T12:39:09.116Z,0.53
2019-03-05T12:41:38.298Z,0.60
2019-03-05T12:44:07.468Z,0.70
2019-03-05T12:46:37.118Z,0.50
2019-03-05T12:49:06.342Z,0.50
2019-03-05T12:51:35.630Z,0.63
2019-03-05T12:54:07.926Z,0.90
2019-03-05T12:56:37.162Z,0.80
2019-03-05T12:59:06.310Z,0.70
2019-03-05T13:01:35.795Z,0.60
2019-03-05T13:04:05.146Z,0.50
2019-03-05T13:06:35.332Z,0.80
2019-03-05T13:09:06.298Z,0.90
2019-03-05T13:11:35.938Z,0.60
2019-03-05T13:14:09.475Z,0.60
2019-03-05T13:16:39.428Z,0.57
2019-03-05T13:19:09.689Z,0.50
2019-03-05T13:21:36.293Z,0.60
2019-03-05T13:24:09.935Z,0.40
2019-03-05T13:26:36.039Z,0.80
2019-03-05T13:29:05.385Z,0.50
2019-03-05T13:31:38.698Z,0.50
2019-03-05T13:34:05.342Z,0.67
2019-03-05T13:36:34.668Z,0.40
2019-03-05T13:39:06.727Z,0.67
2019-03-05T13:41:36.179Z,0.70
2019-03-05T13:44:06.774Z,0.67
2019-03-05T13:46:37.191Z,0.60
2019-03-05T13:51:23.062Z,0.93
2019-03-05T13:54:16.192Z,0.50
2019-03-05T13:57:36.987Z,0.57
2019-03-05T14:00:10.799Z,0.50
2019-03-05T14:02:53.134Z,0.50
2019-03-05T14:05:34.683Z,0.70
2019-03-05T14:09:15.704Z,0.40
2019-03-05T14:11:49.898Z,0.60
2019-03-05T14:14:23.791Z,0.50
2019-03-05T14:16:57.746Z,0.60
2019-03-05T14:19:28.417Z,0.73
2019-03-05T14:21:58.498Z,0.60
2019-03-05T14:27:10.571Z,0.67
2019-03-05T14:29:41.195Z,0.70
2019-03-05T14:32:11.628Z,0.77
2019-03-05T14:34:41.191Z,0.93
2019-03-05T14:37:13.200Z,0.73
2019-03-05T14:39:43.158Z,0.63
2019-03-05T14:42:15.187Z,0.80
2019-03-05T14:44:45.067Z,0.90
2019-03-05T14:47:15.524Z,0.90
2019-03-05T14:49:46.364Z,0.80
2019-03-05T14:52:16.328Z,0.90
2019-03-05T14:54:46.263Z,0.90
2019-03-05T14:57:15.827Z,1.00
2019-03-05T14:59:47.492Z,1.13
2019-03-05T15:02:15.236Z,1.10
2019-03-05T15:04:44.512Z,1.17
2019-03-05T15:07:14.066Z,1.20
2019-03-05T15:09:43.508Z,1.00
2019-03-05T15:12:12.711Z,1.00
2019-03-05T15:14:44.318Z,0.93
2019-03-05T15:17:13.676Z,0.77
2019-03-05T15:19:43.071Z,1.13
2019-03-05T15:22:12.579Z,1.30
2019-03-05T15:24:41.773Z,0.87
2019-03-05T15:27:10.887Z,1.13
2019-03-05T15:29:40.419Z,0.87
2019-03-05T15:32:09.618Z,1.07
2019-03-05T15:34:39.646Z,0.97
2019-03-05T15:37:09.222Z,0.97
2019-03-05T15:39:38.409Z,0.90
2019-03-05T15:42:07.694Z,0.80
2019-03-05T15:44:37.990Z,0.90
2019-03-05T15:47:07.720Z,1.10
2019-03-05T15:49:37.369Z,1.13
2019-03-05T15:52:07.021Z,0.80
2019-03-05T15:54:36.418Z,1.20
2019-03-05T15:57:06.087Z,1.03
2019-03-05T15:59:35.814Z,1.00
2019-03-05T16:02:05.220Z,0.70
2019-03-05T16:04:35.955Z,1.10
2019-03-05T16:07:06.780Z,1.00
2019-03-05T16:09:35.020Z,0.90
2019-03-05T16:12:05.923Z,1.23
2019-03-05T16:14:35.107Z,1.03
2019-03-05T16:17:04.361Z,1.30
2019-03-05T16:19:33.556Z,1.60
2019-03-05T16:22:03.078Z,1.10
2019-03-05T16:24:33.879Z,1.20
2019-03-05T16:27:01.982Z,1.50
2019-03-05T16:29:31.586Z,1.10
2019-03-05T16:32:05.973Z,1.10
2019-03-05T16:34:57.498Z,0.97
2019-03-05T16:37:33.022Z,0.90
2019-03-05T16:40:10.366Z,1.00
2019-03-05T16:42:49.167Z,0.80
2019-03-05T16:45:27.724Z,1.10
2019-03-05T16:48:01.842Z,0.80
2019-03-05T16:50:36.314Z,0.60
2019-03-05T16:53:21.130Z,0.70
2019-03-05T16:55:59.410Z,0.60
2019-03-05T17:00:37.234Z,0.67
2019-03-05T17:03:12.758Z,0.90
2019-03-05T17:05:57.619Z,0.97
2019-03-05T17:08:31.827Z,0.90
2019-03-05T17:11:07.408Z,1.13
2019-03-05T17:13:36.827Z,0.87
2019-03-05T17:16:06.520Z,0.90
2019-03-05T17:18:36.146Z,1.00
2019-03-05T17:21:05.522Z,0.83
2019-03-05T17:23:34.920Z,0.83
2019-03-05T17:26:04.552Z,1.10
2019-03-05T17:28:33.889Z,0.80
2019-03-05T17:31:04.335Z,1.20
2019-03-05T17:33:33.856Z,1.00
2019-03-05T17:36:03.303Z,1.23
2019-03-05T17:38:32.450Z,0.80
2019-03-05T17:41:02.459Z,0.90
2019-03-05T17:43:31.933Z,0.80
2019-03-05T17:46:01.554Z,1.23
2019-03-05T17:48:31.088Z,1.07
2019-03-05T17:51:00.412Z,1.00
2019-03-05T17:53:29.828Z,1.70
2019-03-05T17:55:59.334Z,1.20
2019-03-05T17:58:28.526Z,1.40
2019-03-05T18:00:57.760Z,1.20
2019-03-05T18:03:27.316Z,1.17
2019-03-05T18:05:56.486Z,1.33
2019-03-05T18:08:25.742Z,1.57
2019-03-05T18:10:55.194Z,1.90
2019-03-05T18:13:24.442Z,2.80
2019-03-05T18:15:53.703Z,2.27
2019-03-05T18:18:23.259Z,2.30
2019-03-05T18:20:53.952Z,1.43
2019-03-05T18:23:23.204Z,1.37
2019-03-05T18:25:53.570Z,1.27
2019-03-05T18:28:24.179Z,1.10
2019-03-05T18:30:53.360Z,1.23
2019-03-05T18:33:22.862Z,0.97
2019-03-05T18:35:52.134Z,1.43
2019-03-05T18:38:21.466Z,1.60
2019-03-05T18:43:32.054Z,0.80
2019-03-05T18:46:01.468Z,1.00
2019-03-05T18:48:30.687Z,1.07
2019-03-05T18:51:00.107Z,1.30
2019-03-05T18:53:30.103Z,0.90
2019-03-05T18:55:59.299Z,0.93
2019-03-05T18:58:28.548Z,0.90
2019-03-05T19:00:59.727Z,1.13
2019-03-05T19:03:28.925Z,0.90
2019-03-05T19:05:58.963Z,0.80
2019-03-05T19:08:28.551Z,0.80
2019-03-05T19:10:58.594Z,0.90
2019-03-05T19:13:27.915Z,1.20
2019-03-05T19:15:58.033Z,1.03
2019-03-05T19:18:27.236Z,1.50
2019-03-05T19:20:56.469Z,1.53
2019-03-05T19:23:26.411Z,1.40
2019-03-05T19:25:55.766Z,1.40
2019-03-05T19:28:25.590Z,1.10
2019-03-05T19:30:55.017Z,1.33
2019-03-05T19:33:24.137Z,1.27
2019-03-05T19:35:54.814Z,1.30
2019-03-05T19:38:25.074Z,0.90
2019-03-05T19:40:54.337Z,1.10
2019-03-05T19:43:23.442Z,1.40
2019-03-05T19:45:53.687Z,1.03
2019-03-05T19:48:22.807Z,0.90
2019-03-05T19:50:52.046Z,1.20
2019-03-05T19:53:21.799Z,1.00
2019-03-05T19:55:50.953Z,1.20
2019-03-05T19:58:20.121Z,1.50
2019-03-05T20:00:56.718Z,1.83
2019-03-05T20:03:26.059Z,2.80
2019-03-05T20:05:56.067Z,3.27
2019-03-05T20:08:26.334Z,1.90
2019-03-05T20:10:56.103Z,2.30
2019-03-05T20:13:26.834Z,2.30
2019-03-05T20:15:56.970Z,2.10
2019-03-05T20:18:26.196Z,2.10
2019-03-05T20:20:55.476Z,2.47
2019-03-05T20:23:26.043Z,1.90
2019-03-05T20:25:55.820Z,1.80
2019-03-05T20:28:24.988Z,2.23
2019-03-05T20:30:54.563Z,2.30
2019-03-05T20:33:24.494Z,2.60
2019-03-05T20:35:55.208Z,2.80
2019-03-05T20:38:25.558Z,2.67
2019-03-05T20:40:54.814Z,2.53
2019-03-05T20:43:24.711Z,2.43
2019-03-05T20:45:56.260Z,2.17
2019-03-05T20:48:26.475Z,2.67
2019-03-05T20:50:55.742Z,2.90
2019-03-05T20:53:25.979Z,2.30
2019-03-05T20:55:59.512Z,2.53
2019-03-05T20:58:28.825Z,2.37
2019-03-05T21:00:58.400Z,2.40
2019-03-05T21:03:27.546Z,2.30
2019-03-05T21:05:56.698Z,2.50
2019-03-05T21:08:26.646Z,3.17
2019-03-05T21:10:56.021Z,2.50
2019-03-05T21:13:25.302Z,2.80
2019-03-05T21:15:54.884Z,2.57
2019-03-05T21:18:24.019Z,2.70
2019-03-05T21:20:53.778Z,3.40
2019-03-05T21:23:23.199Z,3.07
2019-03-05T21:25:52.375Z,2.40
2019-03-05T21:28:22.475Z,3.17
2019-03-05T21:30:52.389Z,3.07
2019-03-05T21:33:22.814Z,3.13
2019-03-05T21:35:51.935Z,3.30
2019-03-05T21:38:22.260Z,3.67
2019-03-05T21:40:51.585Z,3.27
2019-03-05T21:43:21.497Z,3.90
2019-03-05T21:45:51.682Z,3.07
2019-03-05T21:48:21.470Z,2.80
2019-03-05T21:50:50.637Z,2.73
2019-03-05T21:53:21.926Z,3.20
2019-03-05T21:55:52.662Z,3.30
2019-03-05T21:58:22.811Z,3.97
2019-03-05T22:00:52.861Z,3.50
2019-03-05T22:03:21.990Z,3.47
2019-03-05T22:05:51.191Z,3.70
2019-03-05T22:08:21.432Z,4.10
2019-03-05T22:10:51.549Z,3.43
2019-03-05T22:13:20.614Z,3.73
2019-03-05T22:15:50.050Z,3.67
2019-03-05T22:18:19.257Z,3.43
2019-03-05T22:20:48.430Z,3.63
2019-03-05T22:23:18.162Z,3.10
2019-03-05T22:25:47.328Z,3.37
2019-03-05T22:28:17.150Z,3.47
2019-03-05T22:30:47.330Z,3.10
2019-03-05T22:33:17.059Z,3.30
2019-03-05T22:35:50.542Z,3.70
2019-03-05T22:38:20.800Z,3.20
2019-03-05T22:40:50.730Z,2.63
2019-03-05T22:43:20.843Z,3.17
2019-03-05T22:45:50.314Z,3.13
2019-03-05T22:48:20.254Z,3.10
2019-03-05T22:50:50.052Z,3.37
2019-03-05T22:53:20.055Z,3.70
2019-03-05T22:55:49.334Z,3.20
2019-03-05T22:58:19.594Z,2.73
2019-03-05T23:01:01.558Z,2.70
2019-03-05T23:03:32.614Z,2.70
2019-03-05T23:06:03.121Z,2.47
2019-03-05T23:08:32.909Z,2.60
2019-03-05T23:11:02.850Z,2.80
2019-03-05T23:13:37.502Z,3.03
2019-03-05T23:16:07.510Z,3.37
2019-03-05T23:18:37.483Z,3.50
2019-03-05T23:21:07.143Z,3.00
2019-03-05T23:23:36.963Z,3.33
2019-03-05T23:26:07.634Z,3.67
2019-03-05T23:28:36.950Z,3.87
2019-03-05T23:31:06.990Z,4.10
2019-03-05T23:33:37.099Z,4.20
2019-03-05T23:36:06.873Z,4.13
2019-03-05T23:38:37.847Z,3.70
2019-03-05T23:41:08.091Z,3.97
2019-03-05T23:43:37.910Z,4.57
2019-03-05T23:46:07.721Z,4.47
2019-03-05T23:48:38.118Z,3.73
2019-03-05T23:51:07.262Z,4.10
2019-03-05T23:53:37.047Z,4.97
2019-03-05T23:56:07.022Z,4.17
2019-03-05T23:58:36.756Z,4.60
